createdAt,value
2018-05-14T00:00:18.395Z,7.67
2018-05-14T00:02:21.728Z,6.73
2018-05-14T00:04:24.271Z,7.57
2018-05-14T00:06:26.834Z,6.80
2018-05-14T00:08:30.144Z,7.33
2018-05-14T00:10:32.709Z,7.20
2018-05-14T00:12:35.278Z,6.63
2018-05-14T00:14:37.853Z,10.90
2018-05-14T00:16:40.396Z,7.20
2018-05-14T00:18:42.948Z,7.83
2018-05-14T00:20:45.484Z,9.67
2018-05-14T00:22:48.044Z,9.60
2018-05-14T00:24:51.370Z,9.07
2018-05-14T00:26:53.903Z,13.03
2018-05-14T00:28:56.456Z,9.90
2018-05-14T00:30:59.772Z,13.93
2018-05-14T00:33:02.349Z,11.63
2018-05-14T00:35:04.943Z,12.93
2018-05-14T00:37:07.488Z,11.20
2018-05-14T00:39:10.812Z,11.47
2018-05-14T00:41:13.476Z,13.97
2018-05-14T00:43:16.039Z,13.90
2018-05-14T00:45:18.612Z,9.43
2018-05-14T00:47:21.939Z,10.43
2018-05-14T00:49:24.522Z,9.10
2018-05-14T00:51:27.029Z,9.10
2018-05-14T00:53:30.348Z,11.37
2018-05-14T00:55:32.899Z,11.77
2018-05-14T00:57:36.284Z,11.57
2018-05-14T00:59:39.611Z,13.87
2018-05-14T01:01:42.153Z,12.87
2018-05-14T01:03:45.486Z,12.30
2018-05-14T01:05:48.032Z,11.33
2018-05-14T01:07:50.606Z,15.40
2018-05-14T01:09:53.183Z,14.93
2018-05-14T01:11:55.728Z,16.13
2018-05-14T01:13:59.067Z,15.67
2018-05-14T01:16:01.641Z,14.80
2018-05-14T01:18:04.209Z,15.17
2018-05-14T01:20:06.763Z,13.73
2018-05-14T01:22:09.343Z,14.50
2018-05-14T01:24:11.924Z,19.67
2018-05-14T01:26:14.487Z,17.20
2018-05-14T01:28:17.122Z,15.23
2018-05-14T01:30:19.667Z,15.97
2018-05-14T01:32:22.219Z,16.43
2018-05-14T01:34:24.787Z,20.27
2018-05-14T01:36:27.340Z,18.27
2018-05-14T01:38:30.676Z,17.53
2018-05-14T01:40:33.237Z,14.90
2018-05-14T01:42:35.775Z,17.97
2018-05-14T01:44:39.111Z,16.83
2018-05-14T01:46:41.655Z,17.40
2018-05-14T01:48:44.217Z,17.80
2018-05-14T01:50:47.536Z,19.87
2018-05-14T01:52:50.085Z,16.70
2018-05-14T01:54:52.668Z,15.07
2018-05-14T01:56:55.211Z,16.23
2018-05-14T01:58:58.548Z,15.00
2018-05-14T02:01:01.104Z,18.90
2018-05-14T02:03:03.649Z,17.80
2018-05-14T02:05:06.975Z,16.33
2018-05-14T02:07:09.522Z,16.23
2018-05-14T02:09:12.868Z,14.90
2018-05-14T02:11:15.431Z,16.23
2018-05-14T02:13:17.971Z,15.50
2018-05-14T02:15:20.576Z,17.50
2018-05-14T02:17:23.139Z,17.03
2018-05-14T02:19:25.716Z,16.63
2018-05-14T02:21:28.300Z,18.17
2018-05-14T02:23:30.884Z,18.47
2018-05-14T02:25:33.440Z,15.47
2018-05-14T02:27:35.983Z,16.13
2018-05-14T02:29:38.556Z,14.43
2018-05-14T02:31:41.100Z,16.23
2018-05-14T02:33:43.646Z,16.27
2018-05-14T02:35:46.213Z,18.67
2018-05-14T02:37:48.767Z,14.13
2018-05-14T02:39:51.372Z,14.10
2018-05-14T02:41:53.932Z,13.47
2018-05-14T02:43:56.498Z,17.63
2018-05-14T02:45:59.099Z,16.80
2018-05-14T02:48:01.649Z,18.77
2018-05-14T02:50:04.221Z,16.33
2018-05-14T02:52:06.803Z,17.23
2018-05-14T02:54:09.367Z,13.37
2018-05-14T02:56:11.918Z,12.07
2018-05-14T02:58:14.467Z,14.13
2018-05-14T03:00:17.803Z,14.00
2018-05-14T03:02:20.359Z,19.47
2018-05-14T03:04:22.935Z,15.67
2018-05-14T03:06:25.493Z,14.87
2018-05-14T03:08:28.801Z,14.23
2018-05-14T03:10:31.380Z,17.97
2018-05-14T03:12:33.923Z,17.77
2018-05-14T03:14:37.344Z,14.40
2018-05-14T03:16:39.891Z,15.67
2018-05-14T03:18:43.268Z,18.17
2018-05-14T03:20:45.832Z,19.83
2018-05-14T03:22:48.379Z,14.30
2018-05-14T03:24:51.045Z,16.60
2018-05-14T03:26:53.593Z,17.07
2018-05-14T03:28:56.134Z,14.70
2018-05-14T03:30:58.739Z,17.93
2018-05-14T03:33:01.282Z,19.53
2018-05-14T03:35:03.844Z,17.37
2018-05-14T03:37:06.392Z,15.53
2018-05-14T03:39:09.770Z,14.73
2018-05-14T03:41:12.333Z,18.07
2018-05-14T03:43:14.885Z,20.23
2018-05-14T03:45:18.219Z,18.20
2018-05-14T03:47:20.775Z,17.23
2018-05-14T03:49:23.309Z,23.57
2018-05-14T03:51:25.867Z,16.10
2018-05-14T03:53:28.408Z,18.27
2018-05-14T03:55:30.977Z,20.20
2018-05-14T03:57:33.533Z,19.90
2018-05-14T03:59:47.765Z,19.43
2018-05-14T04:02:14.806Z,21.10
2018-05-14T04:04:29.312Z,17.63
2018-05-14T04:06:38.894Z,16.77
2018-05-14T04:08:42.251Z,21.93
2018-05-14T04:10:44.847Z,20.40
2018-05-14T04:12:48.258Z,23.87
2018-05-14T04:14:51.611Z,18.43
2018-05-14T04:16:54.175Z,18.97
2018-05-14T04:18:56.735Z,17.97
2018-05-14T04:20:59.303Z,18.80
2018-05-14T04:23:01.848Z,17.87
2018-05-14T04:25:05.159Z,15.23
2018-05-14T04:27:07.734Z,16.20
2018-05-14T04:29:10.304Z,15.83
2018-05-14T04:31:12.867Z,17.47
2018-05-14T04:33:15.402Z,15.83
2018-05-14T04:35:18.029Z,18.17
2018-05-14T04:37:20.595Z,17.03
2018-05-14T04:39:23.151Z,15.80
2018-05-14T04:41:26.720Z,14.97
2018-05-14T04:43:29.262Z,16.37
2018-05-14T04:45:31.831Z,15.87
2018-05-14T04:47:34.389Z,17.23
2018-05-14T04:49:37.817Z,14.67
2018-05-14T04:51:41.166Z,14.20
2018-05-14T04:53:43.712Z,15.00
2018-05-14T04:55:46.269Z,13.13
2018-05-14T04:57:48.815Z,14.47
2018-05-14T04:59:51.355Z,13.70
2018-05-14T05:01:53.928Z,12.93
2018-05-14T05:03:56.467Z,11.10
2018-05-14T05:05:59.011Z,14.13
2018-05-14T05:08:01.560Z,14.23
2018-05-14T05:10:04.220Z,12.80
2018-05-14T05:12:07.560Z,14.63
2018-05-14T05:14:10.972Z,14.43
2018-05-14T05:16:13.540Z,18.83
2018-05-14T05:18:16.088Z,14.90
2018-05-14T05:20:18.634Z,17.70
2018-05-14T05:22:21.192Z,14.50
2018-05-14T05:24:24.496Z,14.60
2018-05-14T05:26:27.071Z,16.00
2018-05-14T05:28:29.657Z,15.43
2018-05-14T05:30:32.992Z,19.10
2018-05-14T05:32:35.564Z,14.83
2018-05-14T05:34:38.111Z,14.40
2018-05-14T05:36:40.659Z,15.17
2018-05-14T05:38:43.220Z,13.40
2018-05-14T05:40:46.530Z,16.57
2018-05-14T05:42:49.101Z,13.57
2018-05-14T05:44:51.643Z,14.73
2018-05-14T05:46:54.975Z,14.73
2018-05-14T05:48:57.505Z,12.67
2018-05-14T05:51:00.863Z,13.23
2018-05-14T05:53:03.415Z,10.80
2018-05-14T05:55:05.968Z,12.20
2018-05-14T05:57:08.584Z,13.63
2018-05-14T05:59:11.123Z,11.87
2018-05-14T06:01:13.760Z,12.37
2018-05-14T06:03:16.247Z,14.47
2018-05-14T06:05:19.588Z,15.53
2018-05-14T06:07:22.154Z,12.07
2018-05-14T06:09:24.706Z,14.87
2018-05-14T06:11:27.236Z,14.93
2018-05-14T06:13:29.816Z,12.93
2018-05-14T06:15:32.408Z,11.50
2018-05-14T06:17:34.915Z,15.50
2018-05-14T06:19:37.451Z,12.07
2018-05-14T06:21:40.770Z,11.63
2018-05-14T06:23:43.351Z,11.40
2018-05-14T06:25:45.900Z,13.37
2018-05-14T06:27:48.478Z,12.27
2018-05-14T06:29:51.808Z,12.57
2018-05-14T06:31:54.355Z,13.73
2018-05-14T06:33:56.923Z,13.20
2018-05-14T06:35:59.518Z,12.23
2018-05-14T06:38:02.075Z,13.17
2018-05-14T06:40:04.607Z,14.47
2018-05-14T06:42:07.963Z,12.20
2018-05-14T06:44:10.511Z,15.37
2018-05-14T06:46:13.059Z,12.03
2018-05-14T06:48:16.387Z,14.87
2018-05-14T06:50:18.937Z,15.93
2018-05-14T06:52:21.515Z,15.40
2018-05-14T06:54:24.067Z,14.33
2018-05-14T06:56:27.461Z,13.93
2018-05-14T06:58:30.789Z,15.03
2018-05-14T07:00:33.339Z,18.37
2018-05-14T07:02:35.920Z,14.50
2018-05-14T07:04:38.487Z,16.83
2018-05-14T07:06:41.033Z,14.67
2018-05-14T07:08:44.411Z,14.13
2018-05-14T07:10:46.983Z,15.63
2018-05-14T07:12:49.572Z,16.03
2018-05-14T07:14:52.896Z,14.60
2018-05-14T07:16:55.464Z,15.17
2018-05-14T07:18:58.004Z,13.17
2018-05-14T07:21:00.573Z,12.00
2018-05-14T07:23:03.119Z,11.50
2018-05-14T07:25:05.697Z,11.87
2018-05-14T07:27:08.315Z,15.27
2018-05-14T07:29:11.623Z,14.57
2018-05-14T07:31:14.212Z,13.17
2018-05-14T07:33:16.759Z,12.27
2018-05-14T07:35:20.223Z,13.03
2018-05-14T07:37:22.636Z,11.30
2018-05-14T07:39:25.200Z,12.43
2018-05-14T07:41:27.782Z,13.40
2018-05-14T07:43:30.368Z,12.43
2018-05-14T07:45:32.925Z,12.33
2018-05-14T07:47:35.463Z,11.20
2018-05-14T07:49:38.027Z,12.63
2018-05-14T07:51:40.602Z,11.07
2018-05-14T07:53:43.169Z,12.17
2018-05-14T07:55:45.716Z,12.40
2018-05-14T07:57:48.288Z,12.40
2018-05-14T07:59:50.859Z,12.73
2018-05-14T08:01:53.405Z,13.07
2018-05-14T08:03:56.744Z,12.77
2018-05-14T08:05:59.291Z,13.73
2018-05-14T08:08:01.871Z,14.13
2018-05-14T08:10:04.407Z,12.67
2018-05-14T08:12:07.720Z,14.47
2018-05-14T08:14:10.301Z,14.70
2018-05-14T08:16:12.888Z,14.13
2018-05-14T08:18:15.439Z,17.63
2018-05-14T08:20:18.018Z,13.90
2018-05-14T08:22:20.550Z,15.43
2018-05-14T08:24:23.129Z,17.23
2018-05-14T08:26:26.452Z,15.27
2018-05-14T08:28:29.020Z,20.30
2018-05-14T08:30:31.568Z,17.37
2018-05-14T08:32:34.116Z,16.10
2018-05-14T08:34:36.683Z,16.47
2018-05-14T08:36:39.243Z,18.10
2018-05-14T08:38:41.821Z,15.10
2018-05-14T08:40:44.385Z,17.87
2018-05-14T08:42:46.944Z,20.47
2018-05-14T08:44:49.523Z,19.27
2018-05-14T08:46:52.127Z,22.30
2018-05-14T08:48:54.699Z,17.60
2018-05-14T08:50:57.396Z,17.27
2018-05-14T08:52:59.944Z,21.57
2018-05-14T08:55:02.517Z,18.83
2018-05-14T08:57:05.060Z,18.83
2018-05-14T08:59:07.651Z,19.73
2018-05-14T09:01:10.171Z,23.07
2018-05-14T09:03:13.495Z,21.23
2018-05-14T09:05:16.901Z,21.17
2018-05-14T09:07:19.436Z,22.53
2018-05-14T09:09:22.777Z,23.90
2018-05-14T09:11:25.319Z,21.23
2018-05-14T09:13:27.908Z,27.93
2018-05-14T09:15:30.487Z,22.67
2018-05-14T09:17:33.033Z,25.23
2018-05-14T09:19:36.411Z,22.13
2018-05-14T09:21:38.931Z,25.83
2018-05-14T09:23:42.247Z,23.13
2018-05-14T09:25:44.812Z,25.20
2018-05-14T09:27:47.436Z,27.40
2018-05-14T09:29:50.767Z,23.47
2018-05-14T09:31:53.316Z,23.33
2018-05-14T09:33:55.911Z,23.13
2018-05-14T09:35:58.480Z,24.47
2018-05-14T09:38:01.031Z,22.57
2018-05-14T09:40:03.592Z,23.20
2018-05-14T09:42:06.151Z,23.13
2018-05-14T09:44:09.535Z,23.30
2018-05-14T09:46:12.250Z,22.63
2018-05-14T09:48:14.727Z,22.73
2018-05-14T09:50:17.308Z,22.20
2018-05-14T09:52:19.848Z,23.67
2018-05-14T09:54:23.183Z,24.23
2018-05-14T09:56:25.757Z,23.13
2018-05-14T09:58:28.297Z,26.20
2018-05-14T10:00:30.908Z,28.90
2018-05-14T10:02:34.230Z,23.03
2018-05-14T10:04:36.773Z,23.40
2018-05-14T10:06:39.328Z,22.43
2018-05-14T10:08:41.881Z,24.83
2018-05-14T10:10:45.340Z,27.93
2018-05-14T10:12:48.657Z,22.50
2018-05-14T10:14:51.991Z,24.07
2018-05-14T10:16:54.565Z,26.77
2018-05-14T10:18:57.112Z,24.00
2018-05-14T10:20:59.679Z,27.67
2018-05-14T10:23:02.244Z,28.13
2018-05-14T10:25:05.577Z,33.13
2018-05-14T10:27:08.140Z,24.90
2018-05-14T10:29:10.680Z,31.03
2018-05-14T10:31:14.018Z,23.33
2018-05-14T10:33:16.596Z,21.57
2018-05-14T10:35:19.186Z,21.57
2018-05-14T10:37:21.724Z,21.23
2018-05-14T10:39:24.288Z,21.27
2018-05-14T10:41:26.863Z,23.37
2018-05-14T10:43:29.451Z,22.23
2018-05-14T10:45:32.038Z,22.63
2018-05-14T10:47:34.567Z,22.27
2018-05-14T10:49:37.887Z,24.60
2018-05-14T10:51:40.445Z,21.00
2018-05-14T10:53:43.019Z,22.23
2018-05-14T10:55:45.588Z,23.70
2018-05-14T10:57:48.145Z,21.10
2018-05-14T10:59:51.467Z,20.87
2018-05-14T11:01:54.043Z,20.57
2018-05-14T11:03:56.654Z,21.47
2018-05-14T11:05:59.160Z,23.57
2018-05-14T11:08:01.734Z,23.37
2018-05-14T11:10:05.070Z,22.87
2018-05-14T11:12:07.723Z,21.37
2018-05-14T11:14:10.281Z,22.93
2018-05-14T11:16:12.850Z,21.87
2018-05-14T11:18:15.413Z,22.40
2018-05-14T11:20:18.717Z,21.70
2018-05-14T11:22:21.424Z,21.90
2018-05-14T11:24:24.072Z,23.00
2018-05-14T11:26:26.576Z,21.60
2018-05-14T11:28:29.145Z,21.30
2018-05-14T11:30:31.688Z,23.60
2018-05-14T11:32:34.248Z,24.53
2018-05-14T11:34:37.567Z,21.53
2018-05-14T11:36:40.139Z,22.77
2018-05-14T11:38:42.688Z,23.40
2018-05-14T11:40:45.296Z,22.27
2018-05-14T11:42:47.874Z,22.13
2018-05-14T11:44:50.438Z,24.37
2018-05-14T11:46:53.153Z,22.83
2018-05-14T11:48:55.788Z,23.70
2018-05-14T11:50:58.344Z,23.80
2018-05-14T11:53:00.923Z,21.60
2018-05-14T11:55:03.451Z,23.07
2018-05-14T11:57:06.014Z,23.57
2018-05-14T11:59:08.577Z,22.10
2018-05-14T12:01:11.113Z,21.30
2018-05-14T12:03:13.736Z,22.20
2018-05-14T12:05:16.253Z,22.43
2018-05-14T12:07:18.889Z,20.50
2018-05-14T12:09:21.439Z,19.83
2018-05-14T12:11:23.985Z,21.83
2018-05-14T12:13:26.595Z,21.60
2018-05-14T12:15:29.147Z,23.60
2018-05-14T12:17:31.710Z,22.63
2018-05-14T12:19:34.271Z,23.27
2018-05-14T12:21:36.845Z,22.67
2018-05-14T12:23:40.259Z,24.60
2018-05-14T12:25:42.840Z,22.13
2018-05-14T12:27:46.146Z,24.37
2018-05-14T12:29:49.463Z,23.83
2018-05-14T12:31:52.065Z,24.60
2018-05-14T12:33:55.368Z,23.07
2018-05-14T12:35:57.915Z,24.43
2018-05-14T12:38:01.331Z,23.40
2018-05-14T12:40:03.904Z,22.63
2018-05-14T12:42:06.472Z,23.67
2018-05-14T12:44:09.030Z,23.70
2018-05-14T12:46:12.392Z,25.80
2018-05-14T12:48:14.969Z,28.40
2018-05-14T12:50:17.520Z,27.63
2018-05-14T12:52:20.084Z,25.23
2018-05-14T12:54:22.667Z,26.30
2018-05-14T12:56:25.219Z,24.47
2018-05-14T12:58:27.781Z,26.63
2018-05-14T13:00:30.383Z,27.67
2018-05-14T13:02:32.974Z,26.60
2018-05-14T13:04:35.519Z,25.97
2018-05-14T13:06:38.081Z,26.33
2018-05-14T13:08:40.656Z,25.63
2018-05-14T13:10:43.207Z,26.03
2018-05-14T13:12:46.575Z,26.47
2018-05-14T13:14:49.139Z,27.30
2018-05-14T13:16:51.692Z,29.00
2018-05-14T13:18:54.371Z,24.57
2018-05-14T13:20:57.683Z,25.63
2018-05-14T13:23:00.256Z,30.13
2018-05-14T13:25:02.811Z,28.50
2018-05-14T13:27:05.368Z,25.83
2018-05-14T13:29:07.936Z,22.00
2018-05-14T13:31:10.491Z,21.57
2018-05-14T13:33:13.060Z,21.03
2018-05-14T13:35:15.620Z,23.30
2018-05-14T13:37:18.937Z,24.57
2018-05-14T13:39:21.514Z,24.27
2018-05-14T13:41:24.111Z,25.00
2018-05-14T13:43:26.666Z,25.07
2018-05-14T13:45:29.239Z,27.30
2018-05-14T13:47:31.812Z,25.53
2018-05-14T13:49:34.405Z,24.97
2018-05-14T13:51:36.959Z,22.33
2018-05-14T13:53:39.562Z,23.03
2018-05-14T13:55:42.120Z,21.03
2018-05-14T13:57:44.684Z,21.83
2018-05-14T13:59:47.259Z,20.93
2018-05-14T14:01:49.805Z,21.27
2018-05-14T14:03:52.378Z,21.27
2018-05-14T14:05:55.693Z,20.83
2018-05-14T14:07:58.243Z,21.20
2018-05-14T14:10:00.813Z,20.77
2018-05-14T14:12:04.161Z,22.50
2018-05-14T14:14:06.769Z,30.10
2018-05-14T14:16:09.311Z,31.13
2018-05-14T14:18:11.889Z,30.07
2018-05-14T14:20:14.463Z,28.97
2018-05-14T14:22:17.028Z,28.00
2018-05-14T14:24:19.757Z,30.93
2018-05-14T14:26:22.162Z,29.00
2018-05-14T14:28:24.753Z,30.70
2018-05-14T14:30:27.348Z,31.70
2018-05-14T14:32:29.903Z,36.07
2018-05-14T14:34:32.483Z,35.80
2018-05-14T14:36:35.126Z,33.77
2018-05-14T14:38:37.668Z,33.27
2018-05-14T14:40:41.012Z,37.70
2018-05-14T14:42:43.639Z,42.63
2018-05-14T14:44:46.231Z,43.33
2018-05-14T14:46:48.839Z,41.07
2018-05-14T14:48:51.599Z,44.37
2018-05-14T14:50:54.165Z,35.30
2018-05-14T14:52:56.728Z,33.97
2018-05-14T14:54:59.297Z,33.93
2018-05-14T14:57:01.856Z,32.73
2018-05-14T14:59:04.395Z,30.67
2018-05-14T15:01:06.983Z,26.90
2018-05-14T15:03:10.324Z,29.87
2018-05-14T15:05:12.900Z,27.97
2018-05-14T15:07:15.446Z,24.10
2018-05-14T15:09:18.017Z,25.57
2018-05-14T15:11:21.471Z,25.67
2018-05-14T15:13:24.023Z,23.33
2018-05-14T15:15:26.603Z,25.27
2018-05-14T15:17:29.162Z,26.50
2018-05-14T15:19:31.716Z,26.70
2018-05-14T15:21:34.280Z,24.00
2018-05-14T15:23:36.830Z,21.50
2018-05-14T15:25:40.167Z,21.50
2018-05-14T15:27:42.729Z,18.83
2018-05-14T15:29:45.408Z,17.70
2018-05-14T15:31:47.888Z,18.63
2018-05-14T15:33:50.435Z,18.53
2018-05-14T15:35:53.004Z,19.57
2018-05-14T15:37:55.571Z,18.30
2018-05-14T15:39:58.963Z,19.70
2018-05-14T15:42:02.297Z,18.17
2018-05-14T15:44:04.855Z,16.73
2018-05-14T15:46:07.424Z,21.00
2018-05-14T15:48:10.038Z,19.87
2018-05-14T15:50:12.635Z,22.13
2018-05-14T15:52:15.186Z,19.87
2018-05-14T15:54:17.744Z,19.90
2018-05-14T15:56:20.329Z,20.00
2018-05-14T15:58:22.872Z,22.13
2018-05-14T16:00:25.462Z,23.10
2018-05-14T16:02:28.010Z,24.90
2018-05-14T16:04:31.341Z,19.80
2018-05-14T16:06:33.911Z,28.97
2018-05-14T16:08:36.490Z,23.90
2018-05-14T16:10:39.062Z,24.07
2018-05-14T16:12:41.615Z,22.17
2018-05-14T16:14:44.946Z,22.70
2018-05-14T16:16:47.517Z,22.17
2018-05-14T16:18:50.063Z,23.53
2018-05-14T16:20:52.651Z,23.30
2018-05-14T16:22:55.200Z,23.60
2018-05-14T16:24:57.758Z,25.37
2018-05-14T16:27:00.470Z,24.53
2018-05-14T16:29:03.029Z,25.60
2018-05-14T16:31:05.593Z,25.73
2018-05-14T16:33:08.231Z,26.57
2018-05-14T16:35:11.573Z,28.67
2018-05-14T16:37:14.303Z,26.80
2018-05-14T16:39:17.632Z,26.73
2018-05-14T16:41:20.216Z,24.30
2018-05-14T16:43:22.763Z,24.13
2018-05-14T16:45:25.331Z,23.80
2018-05-14T16:47:27.892Z,22.27
2018-05-14T16:49:31.211Z,23.70
2018-05-14T16:51:33.799Z,24.23
2018-05-14T16:53:36.351Z,24.90
2018-05-14T16:55:38.907Z,22.13
2018-05-14T16:57:41.498Z,24.53
2018-05-14T16:59:44.808Z,21.03
2018-05-14T17:01:47.398Z,25.90
2018-05-14T17:03:49.940Z,22.47
2018-05-14T17:05:55.591Z,25.27
2018-05-14T17:07:58.156Z,22.87
2018-05-14T17:10:00.697Z,25.90
2018-05-14T17:12:04.062Z,23.33
2018-05-14T17:14:07.406Z,23.53
2018-05-14T17:16:10.015Z,28.37
2018-05-14T17:18:12.578Z,24.27
2018-05-14T17:20:15.128Z,24.37
2018-05-14T17:22:17.697Z,25.30
2018-05-14T17:24:20.318Z,27.10
2018-05-14T17:26:22.917Z,25.23
2018-05-14T17:28:26.248Z,28.13
2018-05-14T17:30:28.811Z,30.03
2018-05-14T17:32:31.448Z,27.33
2018-05-14T17:34:34.027Z,25.70
2018-05-14T17:36:36.714Z,27.97
2018-05-14T17:38:40.032Z,27.23
2018-05-14T17:40:42.598Z,27.97
2018-05-14T17:42:45.177Z,32.13
2018-05-14T17:44:47.851Z,28.50
2018-05-14T17:46:50.475Z,29.57
2018-05-14T17:48:53.052Z,28.17
2018-05-14T17:50:55.608Z,26.27
2018-05-14T17:52:58.305Z,29.07
2018-05-14T17:55:00.783Z,29.73
2018-05-14T17:57:03.360Z,29.63
2018-05-14T17:59:05.928Z,29.17
2018-05-14T18:01:08.537Z,29.40
2018-05-14T18:03:11.112Z,32.80
2018-05-14T18:05:13.759Z,33.63
2018-05-14T18:07:16.343Z,32.57
2018-05-14T18:09:19.671Z,31.20
2018-05-14T18:11:22.197Z,35.30
2018-05-14T18:13:24.792Z,32.60
2018-05-14T18:15:28.117Z,35.87
2018-05-14T18:17:30.781Z,36.27
2018-05-14T18:19:39.687Z,36.33
2018-05-14T18:21:45.190Z,36.50
2018-05-14T18:23:47.777Z,36.73
2018-05-14T18:28:39.485Z,38.77
2018-05-14T18:30:42.072Z,40.00
2018-05-14T18:32:50.304Z,36.10
2018-05-14T18:34:59.188Z,38.23
2018-05-14T18:37:01.922Z,36.83
2018-05-14T18:39:05.442Z,36.00
2018-05-14T18:41:07.916Z,36.27
2018-05-14T18:43:10.504Z,35.87
2018-05-14T18:45:13.832Z,37.27
2018-05-14T18:47:17.278Z,35.33
2018-05-14T18:49:24.744Z,36.07
2018-05-14T18:51:27.311Z,35.23
2018-05-14T18:53:29.889Z,35.50
2018-05-14T18:55:32.463Z,36.40
2018-05-14T18:57:35.039Z,39.10
2018-05-14T18:59:37.704Z,42.37
2018-05-14T19:01:40.278Z,33.80
2018-05-14T19:03:42.849Z,38.87
2018-05-14T19:05:45.444Z,39.10
2018-05-14T19:07:48.016Z,41.80
2018-05-14T19:09:50.737Z,42.33
2018-05-14T19:11:53.295Z,41.40
2018-05-14T19:13:56.657Z,42.17
2018-05-14T19:16:05.535Z,38.13
2018-05-14T19:18:08.119Z,40.60
2018-05-14T19:20:11.438Z,39.83
2018-05-14T19:22:19.640Z,43.77
2018-05-14T19:26:24.030Z,39.27
2018-05-14T19:28:32.089Z,42.07
2018-05-14T19:30:34.681Z,44.23
2018-05-14T19:32:37.243Z,39.00
2018-05-14T19:34:45.480Z,40.50
2018-05-14T19:36:48.113Z,42.27
2018-05-14T19:38:50.720Z,35.73
2018-05-14T19:40:54.035Z,39.20
2018-05-14T19:42:57.385Z,37.13
2018-05-14T19:44:59.999Z,41.57
2018-05-14T19:47:03.338Z,40.53
2018-05-14T19:49:05.920Z,35.33
2018-05-14T19:51:08.496Z,36.93
2018-05-14T19:53:11.056Z,35.77
2018-05-14T19:55:13.764Z,43.00
2018-05-14T19:57:16.317Z,41.17
2018-05-14T19:59:18.920Z,39.80
2018-05-14T20:01:21.519Z,42.90
2018-05-14T20:03:24.907Z,40.93
2018-05-14T20:05:27.444Z,38.80
2018-05-14T20:07:30.020Z,41.07
2018-05-14T20:09:32.631Z,51.47
2018-05-14T20:11:35.952Z,53.23
2018-05-14T20:13:38.539Z,53.80
2018-05-14T20:15:41.766Z,54.03
2018-05-14T20:17:44.439Z,51.00
2018-05-14T20:19:47.025Z,47.03
2018-05-14T20:21:49.576Z,46.23
2018-05-14T20:23:52.175Z,46.10
2018-05-14T20:25:55.512Z,45.90
2018-05-14T20:27:58.084Z,49.47
2018-05-14T20:30:00.664Z,49.63
2018-05-14T20:32:03.213Z,50.17
2018-05-14T20:34:05.896Z,52.27
2018-05-14T20:36:08.451Z,50.10
2018-05-14T20:38:11.853Z,54.33
2018-05-14T20:40:14.434Z,53.43
2018-05-14T20:42:16.977Z,54.13
2018-05-14T20:44:20.368Z,50.07
2018-05-14T20:46:23.699Z,49.87
2018-05-14T20:48:26.296Z,48.20
2018-05-14T20:50:29.647Z,47.33
2018-05-14T20:52:32.185Z,48.00
2018-05-14T20:54:34.764Z,47.40
2018-05-14T20:56:37.345Z,46.87
2018-05-14T20:58:40.744Z,42.37
2018-05-14T21:00:44.105Z,45.03
2018-05-14T21:02:46.663Z,39.23
2018-05-14T21:04:49.325Z,43.33
2018-05-14T21:06:51.896Z,42.03
2018-05-14T21:08:55.213Z,42.27
2018-05-14T21:10:57.784Z,39.73
2018-05-14T21:13:00.344Z,41.20
2018-05-14T21:15:02.943Z,43.33
2018-05-14T21:17:05.517Z,49.90
2018-05-14T21:19:08.118Z,44.33
2018-05-14T21:21:11.520Z,43.43
2018-05-14T21:23:14.860Z,43.90
2018-05-14T21:25:17.424Z,43.57
2018-05-14T21:27:19.989Z,42.87
2018-05-14T21:29:22.547Z,47.77
2018-05-14T21:31:25.912Z,38.07
2018-05-14T21:33:29.254Z,41.17
2018-05-14T21:35:31.852Z,33.17
2018-05-14T21:37:34.406Z,28.93
2018-05-14T21:39:36.969Z,26.30
2018-05-14T21:41:40.299Z,28.40
2018-05-14T21:43:42.873Z,22.50
2018-05-14T21:45:45.490Z,27.77
2018-05-14T21:47:48.049Z,21.20
2018-05-14T21:49:50.764Z,21.43
2018-05-14T21:51:53.335Z,22.33
2018-05-14T21:53:55.884Z,20.10
2018-05-14T21:55:58.464Z,25.30
2018-05-14T21:58:01.045Z,22.40
2018-05-14T22:00:03.573Z,21.60
2018-05-14T22:02:06.153Z,21.60
2018-05-14T22:04:09.468Z,23.23
2018-05-14T22:06:12.879Z,21.93
2018-05-14T22:08:15.432Z,21.77
2018-05-14T22:10:18.006Z,21.03
2018-05-14T22:12:20.569Z,21.43
2018-05-14T22:14:23.912Z,23.47
2018-05-14T22:16:26.557Z,21.57
2018-05-14T22:18:29.119Z,20.90
2018-05-14T22:20:31.688Z,21.83
2018-05-14T22:22:34.247Z,20.13
2018-05-14T22:24:37.568Z,20.77
2018-05-14T22:26:40.147Z,18.43
2018-05-14T22:28:43.461Z,20.43
2018-05-14T22:30:46.043Z,20.40
2018-05-14T22:32:48.603Z,19.67
2018-05-14T22:34:51.160Z,20.43
2018-05-14T22:36:53.737Z,16.40
2018-05-14T22:38:56.292Z,16.47
2018-05-14T22:40:58.880Z,16.20
2018-05-14T22:43:01.437Z,16.63
2018-05-14T22:45:03.981Z,19.97
2018-05-14T22:47:06.552Z,20.10
2018-05-14T22:49:09.113Z,20.80
2018-05-14T22:51:11.737Z,18.77
2018-05-14T22:53:14.395Z,17.17
2018-05-14T22:55:17.713Z,17.63
2018-05-14T22:57:20.562Z,21.83
2018-05-14T22:59:23.888Z,17.50
2018-05-14T23:01:26.444Z,19.87
2018-05-14T23:03:29.048Z,19.20
2018-05-14T23:05:31.609Z,18.17
2018-05-14T23:07:34.178Z,18.13
2018-05-14T23:09:36.749Z,22.07
2018-05-14T23:11:40.240Z,22.40
2018-05-14T23:13:42.788Z,18.20
2018-05-14T23:15:46.127Z,20.57
2018-05-14T23:17:48.707Z,16.13
2018-05-14T23:19:52.023Z,19.90
2018-05-14T23:21:54.685Z,15.10
2018-05-14T23:23:57.240Z,17.30
2018-05-14T23:25:59.806Z,13.87
2018-05-14T23:28:02.411Z,17.90
2018-05-14T23:30:04.955Z,16.23
2018-05-14T23:32:07.547Z,14.13
2018-05-14T23:34:10.092Z,17.67
2018-05-14T23:36:12.644Z,16.93
2018-05-14T23:38:15.221Z,14.03
2018-05-14T23:40:17.777Z,19.43
2018-05-14T23:42:21.123Z,16.73
2018-05-14T23:44:23.674Z,16.50
2018-05-14T23:46:26.222Z,19.23
2018-05-14T23:48:29.564Z,16.47
2018-05-14T23:50:32.877Z,18.07
2018-05-14T23:52:35.497Z,18.40
2018-05-14T23:54:38.056Z,15.97
2018-05-14T23:56:41.365Z,18.17
2018-05-14T23:58:43.936Z,16.00
